Time,TemperatureF,DewpointF,PressureIn,WindDirection,WindDirectionDegrees,WindSpeedMPH,WindSpeedGustMPH,Humidity,HourlyPrecipIn,Conditions,Clouds,dailyrainin,SoftwareType,DateUTC
2013-06-17 00:02:00,68.0,57.0,30.03,WSW,250,6.0,-999.0,68,-99.99,,,-99.99,,2013-06-17 05:02:00,
2013-06-17 00:12:00,66.0,57.0,30.02,WSW,240,6.0,-999.0,72,-99.99,,,-99.99,,2013-06-17 05:12:00,
2013-06-17 00:22:00,66.0,57.0,30.02,WSW,240,6.0,-999.0,72,-99.99,,,-99.99,,2013-06-17 05:22:00,
2013-06-17 00:33:00,66.0,57.0,30.02,North,0,0.0,-999.0,72,-99.99,,,-99.99,,2013-06-17 05:33:00,
2013-06-17 00:44:00,66.0,57.0,30.02,North,0,0.0,-999.0,72,-99.99,,,-99.99,,2013-06-17 05:44:00,
2013-06-17 00:53:00,64.0,57.0,30.02,North,0,0.0,-999.0,77,-99.99,,,-99.99,,2013-06-17 05:53:00,
2013-06-17 01:02:00,64.0,57.0,30.02,North,0,0.0,-999.0,77,-99.99,,,-99.99,,2013-06-17 06:02:00,
2013-06-17 01:12:00,64.0,57.0,30.02,North,0,0.0,-999.0,77,-99.99,,,-99.99,,2013-06-17 06:12:00,
2013-06-17 01:22:00,64.0,57.0,30.02,North,0,0.0,-999.0,77,-99.99,,,-99.99,,2013-06-17 06:22:00,
2013-06-17 01:33:00,63.0,57.0,30.02,North,0,0.0,-999.0,82,-99.99,,,-99.99,,2013-06-17 06:33:00,
2013-06-17 01:43:00,63.0,57.0,30.02,North,0,0.0,-999.0,82,-99.99,,,-99.99,,2013-06-17 06:43:00,
2013-06-17 01:53:00,64.0,57.0,30.03,North,0,0.0,-999.0,77,-99.99,,,-99.99,,2013-06-17 06:53:00,
2013-06-17 02:02:00,64.0,57.0,30.03,North,0,0.0,-999.0,77,-99.99,,,-99.99,,2013-06-17 07:02:00,
2013-06-17 02:12:00,63.0,57.0,30.02,North,0,0.0,-999.0,82,-99.99,,,-99.99,,2013-06-17 07:12:00,
2013-06-17 02:22:00,63.0,57.0,30.02,North,0,0.0,-999.0,82,-99.99,,,-99.99,,2013-06-17 07:22:00,
2013-06-17 02:33:00,61.0,57.0,30.02,North,0,0.0,-999.0,87,-99.99,,,-99.99,,2013-06-17 07:33:00,
2013-06-17 02:43:00,61.0,57.0,30.02,North,0,0.0,-999.0,87,-99.99,,,-99.99,,2013-06-17 07:43:00,
2013-06-17 02:52:00,61.0,57.0,30.02,North,0,0.0,-999.0,87,-99.99,,,-99.99,,2013-06-17 07:52:00,
2013-06-17 03:01:00,61.0,57.0,30.02,North,0,0.0,-999.0,87,-99.99,,,-99.99,,2013-06-17 08:01:00,
2013-06-17 03:11:00,61.0,57.0,30.01,North,0,0.0,-999.0,87,-99.99,,,-99.99,,2013-06-17 08:11:00,
2013-06-17 03:22:00,61.0,57.0,30.01,North,0,0.0,-999.0,87,-99.99,,,-99.99,,2013-06-17 08:22:00,
2013-06-17 03:43:00,59.0,55.0,30.01,North,0,0.0,-999.0,87,-99.99,,,-99.99,,2013-06-17 08:43:00,
2013-06-17 03:52:00,59.0,55.0,30.00,North,0,0.0,-999.0,87,-99.99,,,-99.99,,2013-06-17 08:52:00,
2013-06-17 04:02:00,59.0,55.0,30.00,North,0,0.0,-999.0,87,-99.99,,,-99.99,,2013-06-17 09:02:00,
2013-06-17 04:11:00,57.0,55.0,30.00,North,0,0.0,-999.0,93,-99.99,,,-99.99,,2013-06-17 09:11:00,
2013-06-17 04:34:00,59.0,57.0,30.00,North,0,0.0,-999.0,93,-99.99,,,-99.99,,2013-06-17 09:34:00,
2013-06-17 04:43:00,59.0,57.0,30.00,North,0,0.0,-999.0,93,-99.99,,,-99.99,,2013-06-17 09:43:00,
2013-06-17 05:02:00,57.0,55.0,29.99,North,0,0.0,-999.0,93,-99.99,,,-99.99,,2013-06-17 10:02:00,
2013-06-17 05:12:00,57.0,55.0,29.99,North,0,0.0,-999.0,93,-99.99,,,-99.99,,2013-06-17 10:12:00,
2013-06-17 05:22:00,57.0,55.0,29.99,North,0,0.0,-999.0,93,-99.99,,,-99.99,,2013-06-17 10:22:00,
2013-06-17 05:33:00,59.0,55.0,30.00,North,0,0.0,-999.0,87,-99.99,,,-99.99,,2013-06-17 10:33:00,
2013-06-17 05:43:00,59.0,55.0,30.00,North,0,0.0,-999.0,87,-99.99,,,-99.99,,2013-06-17 10:43:00,
2013-06-17 05:53:00,57.0,55.0,30.01,North,0,0.0,-999.0,93,-99.99,,,-99.99,,2013-06-17 10:53:00,
2013-06-17 06:02:00,57.0,55.0,30.01,North,0,0.0,-999.0,93,-99.99,,,-99.99,,2013-06-17 11:02:00,
2013-06-17 06:12:00,59.0,55.0,30.01,North,0,0.0,-999.0,87,-99.99,,,-99.99,,2013-06-17 11:12:00,
2013-06-17 06:23:00,59.0,55.0,30.01,North,0,0.0,-999.0,87,-99.99,,,-99.99,,2013-06-17 11:23:00,
2013-06-17 06:33:00,59.0,55.0,30.02,North,0,0.0,-999.0,87,-99.99,,,-99.99,,2013-06-17 11:33:00,
2013-06-17 06:43:00,59.0,55.0,30.02,North,0,0.0,-999.0,87,-99.99,,,-99.99,,2013-06-17 11:43:00,
2013-06-17 06:53:00,59.0,55.0,30.03,North,0,0.0,-999.0,87,-99.99,,,-99.99,,2013-06-17 11:53:00,
2013-06-17 07:02:00,59.0,55.0,30.03,North,0,0.0,-999.0,87,-99.99,,,-99.99,,2013-06-17 12:02:00,
2013-06-17 07:11:00,61.0,57.0,30.03,North,0,0.0,-999.0,87,-99.99,,,-99.99,,2013-06-17 12:11:00,
2013-06-17 07:22:00,61.0,57.0,30.03,North,0,0.0,-999.0,87,-99.99,,,-99.99,,2013-06-17 12:22:00,
2013-06-17 07:33:00,63.0,57.0,30.03,North,0,0.0,-999.0,82,-99.99,,,-99.99,,2013-06-17 12:33:00,
2013-06-17 07:43:00,63.0,57.0,30.03,North,0,0.0,-999.0,82,-99.99,,,-99.99,,2013-06-17 12:43:00,
2013-06-17 07:53:00,64.0,57.0,30.03,North,0,0.0,-999.0,77,-99.99,,,-99.99,,2013-06-17 12:53:00,
2013-06-17 08:01:00,64.0,57.0,30.03,North,0,0.0,-999.0,77,-99.99,,,-99.99,,2013-06-17 13:01:00,
2013-06-17 08:12:00,66.0,61.0,30.03,North,0,0.0,-999.0,82,-99.99,,,-99.99,,2013-06-17 13:12:00,
2013-06-17 08:22:00,66.0,61.0,30.03,North,0,0.0,-999.0,82,-99.99,,,-99.99,,2013-06-17 13:22:00,
2013-06-17 08:32:00,68.0,61.0,30.04,North,0,0.0,-999.0,77,-99.99,,,-99.99,,2013-06-17 13:32:00,
2013-06-17 08:43:00,68.0,61.0,30.04,North,0,0.0,-999.0,77,-99.99,,,-99.99,,2013-06-17 13:43:00,
2013-06-17 08:52:00,72.0,61.0,30.04,North,350,7.0,-999.0,68,-99.99,,,-99.99,,2013-06-17 13:52:00,
2013-06-17 09:02:00,72.0,61.0,30.04,North,350,7.0,-999.0,68,-99.99,,,-99.99,,2013-06-17 14:02:00,
2013-06-17 09:12:00,72.0,61.0,30.04,North,350,5.0,-999.0,68,-99.99,,,-99.99,,2013-06-17 14:12:00,
2013-06-17 09:22:00,72.0,61.0,30.04,North,350,5.0,-999.0,68,-99.99,,,-99.99,,2013-06-17 14:22:00,
2013-06-17 09:34:00,73.0,61.0,30.05,North,10,6.0,-999.0,64,-99.99,,,-99.99,,2013-06-17 14:34:00,
2013-06-17 09:43:00,73.0,61.0,30.05,North,10,6.0,-999.0,64,-99.99,,,-99.99,,2013-06-17 14:43:00,
2013-06-17 09:53:00,73.0,61.0,30.05,NNE,30,5.0,-999.0,64,-99.99,,,-99.99,,2013-06-17 14:53:00,
2013-06-17 10:01:00,73.0,61.0,30.05,NNE,30,5.0,-999.0,64,-99.99,,,-99.99,,2013-06-17 15:01:00,
2013-06-17 10:12:00,75.0,59.0,30.06,North,0,0.0,-999.0,57,-99.99,,,-99.99,,2013-06-17 15:12:00,
2013-06-17 10:22:00,75.0,59.0,30.06,North,0,0.0,-999.0,57,-99.99,,,-99.99,,2013-06-17 15:22:00,
2013-06-17 10:33:00,77.0,55.0,30.06,NNE,20,6.0,-999.0,47,-99.99,,,-99.99,,2013-06-17 15:33:00,
2013-06-17 10:43:00,77.0,55.0,30.06,NNE,20,6.0,-999.0,47,-99.99,,,-99.99,,2013-06-17 15:43:00,
2013-06-17 10:52:00,77.0,57.0,30.06,NNW,330,6.0,-999.0,50,-99.99,,,-99.99,,2013-06-17 15:52:00,
2013-06-17 11:02:00,77.0,57.0,30.06,NNW,330,6.0,-999.0,50,-99.99,,,-99.99,,2013-06-17 16:02:00,
2013-06-17 11:11:00,79.0,54.0,30.06,North,-99,5.0,-999.0,41,-99.99,,,-99.99,,2013-06-17 16:11:00,
2013-06-17 11:22:00,79.0,54.0,30.06,North,-99,5.0,-999.0,41,-99.99,,,-99.99,,2013-06-17 16:22:00,
2013-06-17 11:33:00,79.0,55.0,30.06,North,0,0.0,-999.0,44,-99.99,,,-99.99,,2013-06-17 16:33:00,
2013-06-17 11:43:00,79.0,55.0,30.06,North,0,0.0,-999.0,44,-99.99,,,-99.99,,2013-06-17 16:43:00,
2013-06-17 11:53:00,79.0,55.0,30.07,NNW,340,8.0,-999.0,44,-99.99,,,-99.99,,2013-06-17 16:53:00,
2013-06-17 12:02:00,79.0,55.0,30.07,NNW,340,8.0,-999.0,44,-99.99,,,-99.99,,2013-06-17 17:02:00,
2013-06-17 12:12:00,79.0,55.0,30.07,WNW,290,9.0,-999.0,44,-99.99,,,-99.99,,2013-06-17 17:12:00,
2013-06-17 12:22:00,79.0,55.0,30.07,WNW,290,9.0,-999.0,44,-99.99,,,-99.99,,2013-06-17 17:22:00,
2013-06-17 12:33:00,79.0,55.0,30.07,WNW,300,10.0,16.0,44,-99.99,,,-99.99,,2013-06-17 17:33:00,
2013-06-17 12:43:00,79.0,55.0,30.07,WNW,300,10.0,16.0,44,-99.99,,,-99.99,,2013-06-17 17:43:00,
2013-06-17 12:52:00,81.0,55.0,30.06,WNW,290,9.0,-999.0,41,-99.99,,,-99.99,,2013-06-17 17:52:00,
2013-06-17 13:02:00,81.0,55.0,30.06,WNW,290,9.0,-999.0,41,-99.99,,,-99.99,,2013-06-17 18:02:00,
2013-06-17 13:12:00,81.0,52.0,30.06,West,280,13.0,20.0,36,-99.99,,,-99.99,,2013-06-17 18:12:00,
2013-06-17 13:23:00,81.0,52.0,30.06,West,280,13.0,20.0,36,-99.99,,,-99.99,,2013-06-17 18:23:00,
2013-06-17 13:33:00,81.0,52.0,30.06,NW,310,14.0,-999.0,36,-99.99,,,-99.99,,2013-06-17 18:33:00,
2013-06-17 13:43:00,81.0,52.0,30.06,NW,310,14.0,-999.0,36,-99.99,,,-99.99,,2013-06-17 18:43:00,
2013-06-17 13:53:00,81.0,52.0,30.06,West,280,15.0,25.0,36,-99.99,,,-99.99,,2013-06-17 18:53:00,
2013-06-17 14:02:00,81.0,52.0,30.06,West,280,15.0,25.0,36,-99.99,,,-99.99,,2013-06-17 19:02:00,
2013-06-17 14:11:00,81.0,52.0,30.05,NNW,330,10.0,18.0,36,-99.99,,,-99.99,,2013-06-17 19:11:00,
2013-06-17 14:22:00,81.0,52.0,30.05,NNW,330,10.0,18.0,36,-99.99,,,-99.99,,2013-06-17 19:22:00,
2013-06-17 14:33:00,81.0,52.0,30.05,WNW,300,12.0,22.0,36,-99.99,,,-99.99,,2013-06-17 19:33:00,
2013-06-17 14:43:00,81.0,52.0,30.05,WNW,300,12.0,22.0,36,-99.99,,,-99.99,,2013-06-17 19:43:00,
2013-06-17 14:53:00,81.0,52.0,30.05,NNW,330,13.0,23.0,36,-99.99,,,-99.99,,2013-06-17 19:53:00,
2013-06-17 15:02:00,81.0,52.0,30.05,NNW,330,13.0,23.0,36,-99.99,,,-99.99,,2013-06-17 20:02:00,
2013-06-17 15:11:00,81.0,54.0,30.04,WNW,290,14.0,24.0,39,-99.99,,,-99.99,,2013-06-17 20:11:00,
2013-06-17 15:22:00,81.0,54.0,30.04,WNW,290,14.0,24.0,39,-99.99,,,-99.99,,2013-06-17 20:22:00,
2013-06-17 15:34:00,81.0,54.0,30.05,NW,320,14.0,21.0,39,-99.99,,,-99.99,,2013-06-17 20:34:00,
2013-06-17 15:43:00,81.0,54.0,30.05,NW,320,14.0,21.0,39,-99.99,,,-99.99,,2013-06-17 20:43:00,
2013-06-17 15:52:00,81.0,54.0,30.05,WNW,300,16.0,22.0,39,-99.99,,,-99.99,,2013-06-17 20:52:00,
2013-06-17 16:01:00,81.0,54.0,30.05,WNW,300,16.0,22.0,39,-99.99,,,-99.99,,2013-06-17 21:01:00,
2013-06-17 16:12:00,81.0,55.0,30.04,West,280,13.0,21.0,41,-99.99,,,-99.99,,2013-06-17 21:12:00,
2013-06-17 16:22:00,81.0,55.0,30.04,West,280,13.0,21.0,41,-99.99,,,-99.99,,2013-06-17 21:22:00,
2013-06-17 16:33:00,81.0,54.0,30.04,NW,310,17.0,23.0,39,-99.99,,,-99.99,,2013-06-17 21:33:00,
2013-06-17 16:43:00,81.0,54.0,30.04,NW,310,17.0,23.0,39,-99.99,,,-99.99,,2013-06-17 21:43:00,
2013-06-17 16:52:00,79.0,54.0,30.04,WNW,300,15.0,20.0,41,-99.99,,,-99.99,,2013-06-17 21:52:00,
2013-06-17 17:01:00,79.0,54.0,30.04,WNW,300,15.0,20.0,41,-99.99,,,-99.99,,2013-06-17 22:01:00,
2013-06-17 17:11:00,79.0,52.0,30.04,WNW,300,16.0,-999.0,39,-99.99,,,-99.99,,2013-06-17 22:11:00,
2013-06-17 17:22:00,79.0,52.0,30.04,WNW,300,16.0,-999.0,39,-99.99,,,-99.99,,2013-06-17 22:22:00,
2013-06-17 17:33:00,79.0,54.0,30.03,NW,310,9.0,-999.0,41,-99.99,,,-99.99,,2013-06-17 22:33:00,
2013-06-17 17:43:00,79.0,54.0,30.03,NW,310,9.0,-999.0,41,-99.99,,,-99.99,,2013-06-17 22:43:00,
2013-06-17 17:53:00,79.0,54.0,30.03,NW,310,15.0,-999.0,41,-99.99,,,-99.99,,2013-06-17 22:53:00,
2013-06-17 18:02:00,79.0,54.0,30.03,NW,310,15.0,-999.0,41,-99.99,,,-99.99,,2013-06-17 23:02:00,
2013-06-17 18:11:00,81.0,54.0,30.02,NNW,330,10.0,16.0,39,-99.99,,,-99.99,,2013-06-17 23:11:00,
2013-06-17 18:22:00,81.0,54.0,30.02,NNW,330,10.0,16.0,39,-99.99,,,-99.99,,2013-06-17 23:22:00,
2013-06-17 18:32:00,79.0,54.0,30.02,NW,320,10.0,16.0,41,-99.99,,,-99.99,,2013-06-17 23:32:00,
2013-06-17 18:42:00,79.0,54.0,30.02,NW,320,10.0,16.0,41,-99.99,,,-99.99,,2013-06-17 23:42:00,
2013-06-17 18:52:00,79.0,54.0,30.02,NW,310,8.0,-999.0,41,-99.99,,,-99.99,,2013-06-17 23:52:00,
2013-06-17 19:01:00,79.0,54.0,30.02,NW,310,8.0,-999.0,41,-99.99,,,-99.99,,2013-06-18 00:01:00,
2013-06-17 19:12:00,81.0,54.0,30.02,NW,310,10.0,-999.0,39,-99.99,,,-99.99,,2013-06-18 00:12:00,
2013-06-17 19:22:00,81.0,54.0,30.02,NW,310,10.0,-999.0,39,-99.99,,,-99.99,,2013-06-18 00:22:00,
2013-06-17 19:33:00,79.0,55.0,30.02,NW,310,9.0,-999.0,44,-99.99,,,-99.99,,2013-06-18 00:33:00,
2013-06-17 19:43:00,79.0,55.0,30.02,NW,310,9.0,-999.0,44,-99.99,,,-99.99,,2013-06-18 00:43:00,
2013-06-17 19:52:00,79.0,55.0,30.02,WNW,290,10.0,-999.0,44,-99.99,,,-99.99,,2013-06-18 00:52:00,
2013-06-17 20:01:00,79.0,55.0,30.02,WNW,290,10.0,-999.0,44,-99.99,,,-99.99,,2013-06-18 01:01:00,
2013-06-17 20:11:00,79.0,55.0,30.02,NW,310,9.0,-999.0,44,-99.99,,,-99.99,,2013-06-18 01:11:00,
2013-06-17 20:23:00,79.0,55.0,30.02,NW,310,9.0,-999.0,44,-99.99,,,-99.99,,2013-06-18 01:23:00,
2013-06-17 20:34:00,77.0,55.0,30.02,West,280,10.0,-999.0,47,-99.99,,,-99.99,,2013-06-18 01:34:00,
2013-06-17 20:44:00,77.0,55.0,30.02,West,280,10.0,-999.0,47,-99.99,,,-99.99,,2013-06-18 01:44:00,
2013-06-17 20:53:00,75.0,57.0,30.03,West,270,7.0,-999.0,53,-99.99,,,-99.99,,2013-06-18 01:53:00,
2013-06-17 21:02:00,75.0,57.0,30.03,West,270,7.0,-999.0,53,-99.99,,,-99.99,,2013-06-18 02:02:00,
2013-06-17 21:11:00,73.0,57.0,30.03,WNW,290,8.0,-999.0,56,-99.99,,,-99.99,,2013-06-18 02:11:00,
2013-06-17 21:22:00,73.0,57.0,30.03,WNW,290,8.0,-999.0,56,-99.99,,,-99.99,,2013-06-18 02:22:00,
2013-06-17 21:34:00,73.0,57.0,30.03,WNW,300,6.0,-999.0,56,-99.99,,,-99.99,,2013-06-18 02:34:00,
2013-06-17 21:43:00,73.0,57.0,30.03,WNW,300,6.0,-999.0,56,-99.99,,,-99.99,,2013-06-18 02:43:00,
2013-06-17 21:53:00,72.0,57.0,30.04,WNW,290,5.0,-999.0,60,-99.99,,,-99.99,,2013-06-18 02:53:00,
2013-06-17 22:02:00,72.0,57.0,30.04,WNW,290,5.0,-999.0,60,-99.99,,,-99.99,,2013-06-18 03:02:00,
2013-06-17 22:12:00,70.0,57.0,30.04,WNW,300,6.0,-999.0,64,-99.99,,,-99.99,,2013-06-18 03:12:00,
2013-06-17 22:23:00,70.0,57.0,30.04,WNW,300,6.0,-999.0,64,-99.99,,,-99.99,,2013-06-18 03:23:00,
2013-06-17 22:34:00,70.0,57.0,30.05,North,0,0.0,-999.0,64,-99.99,,,-99.99,,2013-06-18 03:34:00,
2013-06-17 22:43:00,70.0,57.0,30.05,North,0,0.0,-999.0,64,-99.99,,,-99.99,,2013-06-18 03:43:00,
2013-06-17 22:53:00,68.0,59.0,30.06,North,0,0.0,-999.0,72,-99.99,,,-99.99,,2013-06-18 03:53:00,
2013-06-17 23:02:00,68.0,59.0,30.06,North,0,0.0,-999.0,72,-99.99,,,-99.99,,2013-06-18 04:02:00,
2013-06-17 23:12:00,66.0,57.0,30.06,North,0,0.0,-999.0,72,-99.99,,,-99.99,,2013-06-18 04:12:00,
2013-06-17 23:22:00,66.0,57.0,30.06,North,0,0.0,-999.0,72,-99.99,,,-99.99,,2013-06-18 04:22:00,
2013-06-17 23:34:00,66.0,57.0,30.06,North,-999,-999.0,-999.0,72,-99.99,,,-99.99,,2013-06-18 04:34:00,
2013-06-17 23:43:00,66.0,57.0,30.06,North,-999,-999.0,-999.0,72,-99.99,,,-99.99,,2013-06-18 04:43:00,
2013-06-17 23:53:00,66.0,59.0,30.07,North,0,0.0,-999.0,77,-99.99,,,-99.99,,2013-06-18 04:53:00,